Time;durP1;ratioP1;P1;durP2;ratioP2;P2;SDS_P1;SDS_P2;PMS_P1;PMS_P2;Temp;Humidity;BMP_temperature;BMP_pressure;BME280_temperature;BME280_humidity;BME280_pressure;Samples;Min_cycle;Max_cycle;Signal;HPM_P1;HPM_P2
2023/12/05 00:01:50;;;;;;;98.05;52.58;;;25.70;2201.60;;;;;;5070933;28;20025;-65
2023/12/05 00:04:16;;;;;;;146.23;78.68;;;25.90;2201.60;;;;;;5070809;28;20062;-62
2023/12/05 00:06:42;;;;;;;54.58;30.05;;;26.10;2201.60;;;;;;5073553;28;20074;-62
2023/12/05 00:09:08;;;;;;;47.28;27.08;;;26.20;2201.60;;;;;;5072792;28;20024;-71
2023/12/05 00:11:33;;;;;;;51.95;30.80;;;26.30;2201.60;;;;;;5074191;28;20040;-62
2023/12/05 00:13:59;;;;;;;221.35;107.78;;;26.40;2201.60;;;;;;5073611;28;20059;-66
2023/12/05 00:16:27;;;;;;;208.27;104.65;;;26.30;2201.60;;;;;;5073835;28;20106;-63
2023/12/05 00:18:52;;;;;;;214.75;115.90;;;26.40;2201.60;;;;;;5070812;28;20036;-63
2023/12/05 00:21:18;;;;;;;238.68;114.88;;;26.20;2201.60;;;;;;5070656;28;20029;-62
2023/12/05 00:23:44;;;;;;;252.45;119.20;;;26.10;2201.60;;;;;;5070118;28;20497;-64
2023/12/05 00:26:10;;;;;;;161.80;83.95;;;26.50;2201.60;;;;;;5070779;28;20038;-63
2023/12/05 00:28:35;;;;;;;160.10;88.15;;;26.50;2201.60;;;;;;5066726;28;20028;-64
2023/12/05 00:31:01;;;;;;;184.40;101.00;;;26.50;2201.60;;;;;;5063836;28;20410;-61
2023/12/05 00:33:27;;;;;;;200.73;109.20;;;51.20;2227.20;;;;;;5070001;28;20441;-65
2023/12/05 00:35:52;;;;;;;197.68;110.28;;;51.30;2227.20;;;;;;5069707;28;20727;-64
2023/12/05 00:38:18;;;;;;;153.75;89.00;;;51.40;2227.20;;;;;;5066027;28;20025;-61
2023/12/05 00:40:44;;;;;;;136.20;76.35;;;51.60;2227.20;;;;;;5070081;28;20036;-63
2023/12/05 00:43:10;;;;;;;115.00;61.85;;;51.60;2227.20;;;;;;5069954;28;20036;-63
2023/12/05 00:45:35;;;;;;;108.10;59.85;;;51.70;2227.20;;;;;;5070139;28;20035;-66
2023/12/05 00:48:01;;;;;;;90.72;47.08;;;51.80;2227.20;;;;;;5069893;28;20035;-63
2023/12/05 00:50:27;;;;;;;86.53;48.38;;;51.90;2227.20;;;;;;5070042;28;20024;-62
2023/12/05 00:52:52;;;;;;;160.52;93.50;;;51.90;2227.20;;;;;;5069953;28;20500;-62
2023/12/05 00:55:18;;;;;;;245.50;130.15;;;51.70;2227.20;;;;;;5069585;28;20052;-64
2023/12/05 00:57:44;;;;;;;245.93;126.88;;;51.60;2227.20;;;;;;5069024;28;20062;-64
2023/12/05 01:00:10;;;;;;;270.30;140.30;;;51.40;2227.20;;;;;;5067053;28;20028;-64
2023/12/05 01:02:36;;;;;;;161.45;85.20;;;51.60;2227.20;;;;;;5064692;28;20040;-63
2023/12/05 01:05:02;;;;;;;179.45;101.70;;;51.60;2227.20;;;;;;5062434;28;20097;-63
2023/12/05 01:07:28;;;;;;;163.98;97.10;;;51.50;2227.20;;;;;;5069413;28;20048;-64
2023/12/05 01:09:54;;;;;;;87.53;52.33;;;51.50;2227.20;;;;;;5068984;28;20394;-64
2023/12/05 01:12:20;;;;;;;60.67;35.13;;;51.30;2227.20;;;;;;5069862;28;20098;-63
2023/12/05 01:14:46;;;;;;;56.97;33.40;;;51.20;2227.20;;;;;;5069071;28;20028;-62
2023/12/05 01:17:12;;;;;;;59.13;35.30;;;26.40;2201.60;;;;;;5069705;28;20116;-63
2023/12/05 01:19:38;;;;;;;50.58;28.00;;;26.10;2201.60;;;;;;5069198;28;20027;-64
2023/12/05 01:22:04;;;;;;;39.15;22.50;;;26.10;2201.60;;;;;;5069718;28;20078;-63
2023/12/05 01:24:30;;;;;;;35.53;21.05;;;26.00;2201.60;;;;;;5069226;28;20059;-62
2023/12/05 01:26:56;;;;;;;38.30;19.95;;;26.20;2201.60;;;;;;5069374;28;20068;-63
2023/12/05 01:29:21;;;;;;;94.03;53.40;;;26.40;2201.60;;;;;;5069608;28;20033;-68
2023/12/05 01:31:47;;;;;;;40.72;25.50;;;51.30;2227.20;;;;;;5069404;28;20099;-64
2023/12/05 01:34:13;;;;;;;45.17;24.92;;;51.40;2227.20;;;;;;5069330;28;20442;-62
2023/12/05 01:36:39;;;;;;;44.10;25.35;;;51.60;2227.20;;;;;;5069343;28;20029;-65
2023/12/05 01:39:04;;;;;;;55.63;33.25;;;51.70;2227.20;;;;;;5067230;28;20119;-64
2023/12/05 01:41:30;;;;;;;37.42;23.67;;;51.90;2227.20;;;;;;5067077;28;20028;-62
2023/12/05 01:43:56;;;;;;;39.53;22.75;;;51.70;2227.20;;;;;;5069088;28;20048;-67
2023/12/05 01:46:24;;;;;;;35.25;19.65;;;51.60;2227.20;;;;;;5069214;28;20028;-63
2023/12/05 01:48:50;;;;;;;36.47;22.00;;;51.30;2227.20;;;;;;5069654;28;20111;-63
2023/12/05 01:51:17;;;;;;;38.53;20.10;;;51.20;2227.20;;;;;;5068878;28;20514;-67
2023/12/05 01:53:43;;;;;;;33.50;20.85;;;26.50;2201.60;;;;;;5069507;28;20036;-63
2023/12/05 01:56:11;;;;;;;35.58;19.27;;;26.40;2201.60;;;;;;5068473;28;20024;-63
2023/12/05 01:58:38;;;;;;;29.20;16.85;;;26.40;2201.60;;;;;;5068588;28;20094;-64
2023/12/05 02:01:04;;;;;;;26.80;15.45;;;26.50;2201.60;;;;;;5069371;28;20174;-62
2023/12/05 02:03:31;;;;;;;30.60;17.77;;;26.50;2201.60;;;;;;5069216;28;20072;-62
2023/12/05 02:05:58;;;;;;;63.38;37.42;;;26.50;2201.60;;;;;;5068897;28;20029;-66
2023/12/05 02:08:27;;;;;;;101.18;61.40;;;51.30;2227.20;;;;;;5069108;28;20032;-61
2023/12/05 02:10:53;;;;;;;40.92;23.60;;;51.40;2227.20;;;;;;5072246;28;20095;-67
2023/12/05 02:13:18;;;;;;;27.17;15.93;;;51.60;2227.20;;;;;;5072664;28;20131;-66
2023/12/05 02:15:51;;;;;;;30.80;18.98;;;51.80;2227.20;;;;;;5073984;28;20100;-63
2023/12/05 02:18:21;;;;;;;76.50;40.70;;;52.10;2227.20;;;;;;5068618;28;20027;-67
2023/12/05 02:20:50;;;;;;;74.85;38.58;;;51.80;2227.20;;;;;;5074687;28;20059;-70
2023/12/05 02:23:47;;;;;;;75.22;38.40;;;51.70;2227.20;;;;;;5073795;28;20123;-67
2023/12/05 02:26:47;;;;;;;66.25;37.13;;;52.00;2227.20;;;;;;5073691;28;20055;-66
2023/12/05 02:29:16;;;;;;;65.47;40.33;;;52.10;2227.20;;;;;;5072933;28;20770;-66
2023/12/05 02:31:42;;;;;;;93.88;62.65;;;76.80;2227.20;;;;;;5072718;28;20109;-64
2023/12/05 02:34:08;;;;;;;42.50;24.98;;;77.00;2227.20;;;;;;5069979;28;20071;-64
2023/12/05 02:36:43;;;;;;;55.65;33.50;;;52.00;2227.20;;;;;;5062334;28;20092;-66
2023/12/05 02:39:18;;;;;;;56.03;33.58;;;51.80;2227.20;;;;;;5072347;28;20028;-64
2023/12/05 02:41:48;;;;;;;63.13;35.85;;;51.60;2227.20;;;;;;5072251;28;20033;-64
2023/12/05 02:44:16;;;;;;;44.22;25.52;;;51.40;2227.20;;;;;;5071912;28;20032;-64
2023/12/05 02:46:43;;;;;;;48.75;27.33;;;51.60;2227.20;;;;;;5072242;28;20121;-64
2023/12/05 02:49:11;;;;;;;36.35;21.65;;;51.80;2227.20;;;;;;5065899;28;20025;-63
2023/12/05 02:51:37;;;;;;;39.92;25.70;;;52.10;2227.20;;;;;;5072129;28;20036;-63
2023/12/05 02:54:06;;;;;;;37.65;23.90;;;52.10;2227.20;;;;;;5072310;28;20040;-65
2023/12/05 02:56:34;;;;;;;44.55;24.50;;;76.80;2227.20;;;;;;5072315;28;20047;-65
2023/12/05 02:59:00;;;;;;;41.85;25.25;;;76.90;2227.20;;;;;;5072193;28;20374;-64
2023/12/05 03:01:25;;;;;;;42.00;23.88;;;76.90;2227.20;;;;;;5071866;28;20115;-64
2023/12/05 03:03:51;;;;;;;78.32;42.35;;;77.00;2227.20;;;;;;5071680;28;20064;-65
2023/12/05 03:06:17;;;;;;;54.17;30.13;;;77.20;2227.20;;;;;;5053151;28;20068;-63
2023/12/05 03:08:43;;;;;;;61.70;39.53;;;77.30;2227.20;;;;;;5071795;28;20025;-65
2023/12/05 03:11:08;;;;;;;77.53;43.33;;;77.20;2227.20;;;;;;5072034;28;20378;-65
2023/12/05 03:13:38;;;;;;;71.25;42.83;;;76.90;2227.20;;;;;;5071618;28;20135;-65
2023/12/05 03:16:05;;;;;;;67.60;39.85;;;77.20;2227.20;;;;;;5071750;28;20021;-63
2023/12/05 03:18:30;;;;;;;58.92;37.60;;;77.20;2227.20;;;;;;5071679;28;20465;-66
2023/12/05 03:20:56;;;;;;;58.83;37.00;;;77.20;2227.20;;;;;;5063914;28;20062;-64
2023/12/05 03:23:22;;;;;;;58.20;34.03;;;77.10;2227.20;;;;;;5071423;28;20044;-64
2023/12/05 03:25:47;;;;;;;56.60;35.03;;;77.10;2227.20;;;;;;5071270;28;20024;-65
2023/12/05 03:28:13;;;;;;;53.75;30.55;;;52.10;2227.20;;;;;;5071720;28;20020;-64
2023/12/05 03:30:39;;;;;;;51.92;31.50;;;76.80;2227.20;;;;;;5071148;28;20118;-65
2023/12/05 03:33:05;;;;;;;52.40;30.85;;;76.80;2227.20;;;;;;5071819;28;20025;-65
2023/12/05 03:35:30;;;;;;;51.92;30.92;;;76.80;2227.20;;;;;;5071598;28;20036;-64
2023/12/05 03:37:56;;;;;;;49.00;32.10;;;76.80;2227.20;;;;;;5071087;28;20047;-64
2023/12/05 03:40:22;;;;;;;57.50;33.83;;;52.10;2227.20;;;;;;5071401;28;20089;-64
2023/12/05 03:42:47;;;;;;;48.30;30.48;;;52.00;2227.20;;;;;;5071117;28;20036;-63
2023/12/05 03:45:13;;;;;;;46.20;29.08;;;52.10;2227.20;;;;;;5071370;28;20086;-64
2023/12/05 03:47:39;;;;;;;39.58;24.45;;;52.10;2227.20;;;;;;5071044;28;20086;-64
2023/12/05 03:50:05;;;;;;;46.63;28.00;;;52.10;2227.20;;;;;;5071446;28;20096;-63
2023/12/05 03:52:31;;;;;;;42.88;27.05;;;52.10;2227.20;;;;;;5064856;28;20031;-61
2023/12/05 03:54:57;;;;;;;48.42;27.60;;;52.10;2227.20;;;;;;5071096;28;20111;-64
2023/12/05 03:57:22;;;;;;;54.35;35.47;;;52.10;2227.20;;;;;;5071027;28;20025;-64
2023/12/05 03:59:48;;;;;;;53.60;31.80;;;52.00;2227.20;;;;;;5070706;28;20029;-63
2023/12/05 04:02:14;;;;;;;40.47;26.08;;;52.10;2227.20;;;;;;5070751;28;20025;-64
2023/12/05 04:04:40;;;;;;;39.13;24.15;;;52.10;2227.20;;;;;;5071175;28;20037;-64
2023/12/05 04:07:06;;;;;;;33.00;19.63;;;51.80;2227.20;;;;;;5070601;28;20070;-64
2023/12/05 04:09:32;;;;;;;36.05;21.83;;;51.50;2227.20;;;;;;5070859;28;20047;-64
2023/12/05 04:11:58;;;;;;;35.03;21.38;;;51.60;2227.20;;;;;;5070443;28;20063;-64
2023/12/05 04:14:24;;;;;;;39.45;22.95;;;51.60;2227.20;;;;;;5071009;28;20563;-65
2023/12/05 04:16:50;;;;;;;36.33;23.80;;;51.30;2227.20;;;;;;5070316;28;20020;-65
2023/12/05 04:19:16;;;;;;;35.92;21.35;;;26.50;2201.60;;;;;;5070357;28;20036;-65
2023/12/05 04:21:42;;;;;;;34.00;19.90;;;51.30;2227.20;;;;;;5070086;28;20043;-65
2023/12/05 04:24:07;;;;;;;34.28;21.10;;;51.40;2227.20;;;;;;5068054;28;20052;-67
2023/12/05 04:26:33;;;;;;;43.15;23.33;;;51.40;2227.20;;;;;;5073975;28;20017;-67
2023/12/05 04:28:59;;;;;;;37.78;24.55;;;51.30;2227.20;;;;;;5073891;28;20598;-66
2023/12/05 04:31:26;;;;;;;40.67;23.25;;;51.40;2227.20;;;;;;5073016;28;20024;-64
2023/12/05 04:33:53;;;;;;;37.67;20.90;;;51.50;2227.20;;;;;;5073112;28;20025;-64
2023/12/05 04:36:18;;;;;;;32.63;18.20;;;51.60;2227.20;;;;;;5057868;28;20060;-64
2023/12/05 04:38:44;;;;;;;28.65;17.50;;;51.60;2227.20;;;;;;5070094;28;20029;-64
2023/12/05 04:41:10;;;;;;;27.88;16.20;;;51.70;2227.20;;;;;;5070257;28;20025;-65
2023/12/05 04:43:36;;;;;;;29.00;18.65;;;51.70;2227.20;;;;;;5070459;28;20037;-64
2023/12/05 04:46:02;;;;;;;30.25;17.77;;;51.60;2227.20;;;;;;5068486;28;20119;-62
2023/12/05 04:48:28;;;;;;;23.55;16.63;;;51.70;2227.20;;;;;;5070112;28;20170;-64
2023/12/05 04:50:54;;;;;;;44.00;24.45;;;51.50;2227.20;;;;;;5070470;28;20547;-64
2023/12/05 04:53:20;;;;;;;46.42;26.15;;;51.30;2227.20;;;;;;5070359;28;20417;-63
2023/12/05 04:55:45;;;;;;;51.58;26.85;;;26.50;2201.60;;;;;;5069700;28;20044;-64
2023/12/05 04:58:11;;;;;;;36.00;23.33;;;26.50;2201.60;;;;;;5069586;28;20029;-64
2023/12/05 05:00:37;;;;;;;35.65;20.55;;;26.50;2201.60;;;;;;5067485;28;20435;-64
2023/12/05 05:03:04;;;;;;;42.65;23.67;;;51.20;2227.20;;;;;;5070004;28;20487;-63
2023/12/05 05:05:30;;;;;;;47.40;25.80;;;51.30;2227.20;;;;;;5069799;28;20017;-64
2023/12/05 05:07:55;;;;;;;34.97;19.02;;;51.30;2227.20;;;;;;5069755;28;20028;-65
2023/12/05 05:10:21;;;;;;;30.17;19.73;;;51.20;2227.20;;;;;;5069458;28;20029;-64
2023/12/05 05:12:47;;;;;;;29.98;21.30;;;51.40;2227.20;;;;;;5069473;28;20052;-65
2023/12/05 05:15:13;;;;;;;29.52;18.20;;;51.40;2227.20;;;;;;5069331;28;20034;-65
2023/12/05 05:17:38;;;;;;;29.80;18.77;;;51.50;2227.20;;;;;;5069804;28;20051;-65
2023/12/05 05:20:05;;;;;;;56.40;29.05;;;51.50;2227.20;;;;;;5069423;28;20130;-64
2023/12/05 05:22:30;;;;;;;36.55;22.50;;;51.50;2227.20;;;;;;5069643;28;20111;-64
2023/12/05 05:24:56;;;;;;;35.85;22.23;;;51.50;2227.20;;;;;;5069276;28;20116;-63
2023/12/05 05:27:22;;;;;;;32.13;19.58;;;51.50;2227.20;;;;;;5069971;28;20032;-65
2023/12/05 05:29:48;;;;;;;22.63;14.27;;;51.60;2227.20;;;;;;5064113;28;20460;-63
2023/12/05 05:32:13;;;;;;;35.22;20.20;;;51.60;2227.20;;;;;;5069153;28;20032;-66
2023/12/05 05:34:39;;;;;;;40.47;24.20;;;51.60;2227.20;;;;;;5069366;28;20100;-65
2023/12/05 05:37:05;;;;;;;32.97;20.02;;;51.60;2227.20;;;;;;5068959;28;20024;-65
2023/12/05 05:39:30;;;;;;;29.27;17.75;;;51.50;2227.20;;;;;;5069284;28;20028;-65
2023/12/05 05:41:56;;;;;;;23.65;15.30;;;51.40;2227.20;;;;;;5069010;28;20036;-65
2023/12/05 05:44:22;;;;;;;29.60;17.80;;;51.20;2227.20;;;;;;5068256;28;20048;-62
2023/12/05 05:46:48;;;;;;;30.27;16.58;;;51.20;2227.20;;;;;;5068670;28;20025;-63
2023/12/05 05:49:13;;;;;;;30.90;16.77;;;51.20;2227.20;;;;;;5069314;28;20031;-62
2023/12/05 05:51:39;;;;;;;33.90;19.73;;;51.30;2227.20;;;;;;5069050;28;20051;-66
2023/12/05 05:54:05;;;;;;;33.47;19.15;;;51.20;2227.20;;;;;;5056760;28;20024;-65
2023/12/05 05:56:37;;;;;;;28.10;17.45;;;51.30;2227.20;;;;;;5069063;28;20071;-67
2023/12/05 05:59:02;;;;;;;34.92;19.35;;;51.20;2227.20;;;;;;5069386;28;20063;-64
2023/12/05 06:01:28;;;;;;;36.63;19.83;;;26.50;2201.60;;;;;;5066691;28;20056;-65
2023/12/05 06:03:54;;;;;;;37.30;22.55;;;26.50;2201.60;;;;;;5063450;28;20546;-65
2023/12/05 06:06:19;;;;;;;45.33;27.73;;;26.20;2201.60;;;;;;5066059;28;20104;-62
2023/12/05 06:08:45;;;;;;;43.55;25.80;;;26.40;2201.60;;;;;;5068776;28;20095;-65
2023/12/05 06:11:11;;;;;;;42.17;24.48;;;26.50;2201.60;;;;;;5068704;28;20035;-66
2023/12/05 06:13:36;;;;;;;37.85;21.98;;;26.50;2201.60;;;;;;5068527;28;20083;-63
2023/12/05 06:16:02;;;;;;;36.40;23.52;;;51.20;2227.20;;;;;;5068829;28;20025;-63
2023/12/05 06:18:28;;;;;;;32.58;22.98;;;51.40;2227.20;;;;;;5050542;28;20387;-65
2023/12/05 06:20:56;;;;;;;33.17;20.30;;;51.40;2227.20;;;;;;5068463;28;20013;-64
2023/12/05 06:23:22;;;;;;;41.53;25.67;;;51.40;2227.20;;;;;;5068983;28;20037;-63
2023/12/05 06:25:47;;;;;;;35.38;21.55;;;51.50;2227.20;;;;;;5068376;28;20482;-64
2023/12/05 06:28:13;;;;;;;33.75;19.15;;;51.60;2227.20;;;;;;5068879;28;20024;-65
2023/12/05 06:30:39;;;;;;;42.90;24.98;;;51.60;2227.20;;;;;;5068815;28;20036;-64
2023/12/05 06:33:05;;;;;;;60.58;33.58;;;51.60;2227.20;;;;;;5068779;28;20032;-62
2023/12/05 06:35:31;;;;;;;61.78;34.40;;;51.60;2227.20;;;;;;5068459;28;20032;-64
2023/12/05 06:37:57;;;;;;;72.10;44.58;;;51.70;2227.20;;;;;;5064906;28;20486;-64
2023/12/05 06:40:23;;;;;;;96.75;53.25;;;51.70;2227.20;;;;;;5068944;28;20386;-63
2023/12/05 06:42:48;;;;;;;107.25;60.58;;;51.80;2227.20;;;;;;5068500;28;21984;-63
2023/12/05 06:45:15;;;;;;;97.63;58.35;;;51.80;2227.20;;;;;;5069166;28;20064;-63
2023/12/05 06:47:40;;;;;;;56.03;31.67;;;52.10;2227.20;;;;;;5068230;28;20020;-63
2023/12/05 06:50:10;;;;;;;77.15;42.97;;;52.10;2227.20;;;;;;5068647;28;20046;-64
2023/12/05 06:52:37;;;;;;;82.38;46.33;;;52.10;2227.20;;;;;;5056768;28;20086;-64
2023/12/05 06:55:04;;;;;;;72.50;45.75;;;52.10;2227.20;;;;;;5069749;28;20071;-62
2023/12/05 06:57:30;;;;;;;70.60;41.80;;;76.90;2227.20;;;;;;5072338;28;20470;-63
2023/12/05 06:59:56;;;;;;;106.10;67.18;;;76.90;2227.20;;;;;;5072292;28;20108;-62
2023/12/05 07:02:21;;;;;;;76.40;49.30;;;76.90;2227.20;;;;;;5072227;28;20465;-63
2023/12/05 07:04:47;;;;;;;53.90;33.65;;;76.90;2227.20;;;;;;5072183;28;20119;-63
2023/12/05 07:07:13;;;;;;;44.20;26.70;;;77.10;2227.20;;;;;;5072004;28;20031;-63
2023/12/05 07:09:39;;;;;;;51.38;31.52;;;77.20;2227.20;;;;;;5072158;28;20036;-64
2023/12/05 07:12:05;;;;;;;49.95;29.85;;;77.40;2227.20;;;;;;5071801;28;20059;-61
2023/12/05 07:14:34;;;;;;;39.90;25.67;;;77.40;2227.20;;;;;;5067671;28;20032;-64
2023/12/05 07:17:00;;;;;;;45.35;27.67;;;77.60;2227.20;;;;;;5070923;28;20754;-61
2023/12/05 07:19:26;;;;;;;47.90;30.75;;;77.60;2227.20;;;;;;5072035;28;20032;-62
2023/12/05 07:21:52;;;;;;;51.67;32.15;;;77.40;2227.20;;;;;;5071929;28;20518;-62
2023/12/05 07:24:17;;;;;;;48.50;29.23;;;77.00;2227.20;;;;;;5071929;28;20440;-65
2023/12/05 07:26:43;;;;;;;45.17;29.70;;;77.00;2227.20;;;;;;5071816;28;20418;-67
2023/12/05 07:29:09;;;;;;;37.90;22.90;;;77.10;2227.20;;;;;;5071734;28;20027;-66
2023/12/05 07:31:35;;;;;;;41.70;26.80;;;77.10;2227.20;;;;;;5071934;28;20442;-60
2023/12/05 07:34:02;;;;;;;36.53;23.00;;;77.20;2227.20;;;;;;5071957;28;20501;-66
2023/12/05 07:36:28;;;;;;;49.40;32.03;;;77.40;2227.20;;;;;;5071549;28;20060;-60
2023/12/05 07:38:54;;;;;;;103.38;57.78;;;102.50;2227.20;;;;;;5071829;28;20581;-63
2023/12/05 07:41:20;;;;;;;57.55;41.72;;;102.50;2227.20;;;;;;5071325;28;20442;-62
2023/12/05 07:43:46;;;;;;;44.28;31.77;;;102.70;2227.20;;;;;;5071330;28;20047;-60
2023/12/05 07:46:12;;;;;;;37.17;26.63;;;103.00;2227.20;;;;;;5069379;28;20048;-63
2023/12/05 07:48:38;;;;;;;51.65;35.63;;;103.10;2227.20;;;;;;5070572;28;20425;-63
2023/12/05 07:51:04;;;;;;;35.05;22.08;;;103.20;2227.20;;;;;;5070778;28;20077;-61
2023/12/05 07:53:30;;;;;;;36.60;23.27;;;128.10;2252.80;;;;;;5071019;28;20036;-65
2023/12/05 07:55:56;;;;;;;45.88;23.67;;;103.30;2227.20;;;;;;5071186;28;20028;-66
2023/12/05 07:58:24;;;;;;;30.90;20.80;;;103.30;2227.20;;;;;;5071083;28;20036;-65
2023/12/05 08:00:50;;;;;;;35.60;22.63;;;128.10;2252.80;;;;;;5070791;28;20036;-64
2023/12/05 08:03:16;;;;;;;41.75;24.88;;;103.30;2227.20;;;;;;5053330;28;20028;-65
2023/12/05 08:05:41;;;;;;;37.67;24.67;;;103.30;2227.20;;;;;;5070783;28;20042;-64
2023/12/05 08:08:07;;;;;;;45.30;28.67;;;103.20;2227.20;;;;;;5070361;28;20055;-62
2023/12/05 08:10:33;;;;;;;55.60;31.42;;;103.30;2227.20;;;;;;5069234;28;20036;-62
2023/12/05 08:12:59;;;;;;;53.25;32.55;;;128.50;2252.80;;;;;;5070896;28;20413;-64
2023/12/05 08:15:24;;;;;;;52.10;31.40;;;128.30;2252.80;;;;;;5070335;28;20459;-63
2023/12/05 08:17:50;;;;;;;66.72;38.92;;;128.70;2252.80;;;;;;5070880;28;20028;-62
2023/12/05 08:20:16;;;;;;;45.25;28.02;;;153.70;2252.80;;;;;;5064605;28;20078;-64
2023/12/05 08:22:41;;;;;;;50.65;30.17;;;128.90;2252.80;;;;;;5069096;28;20533;-65
2023/12/05 08:25:10;;;;;;;45.10;31.50;;;153.60;2252.80;;;;;;5070712;28;20024;-62
2023/12/05 08:27:36;;;;;;;51.50;33.95;;;154.00;2252.80;;;;;;5059376;28;20486;-59
2023/12/05 08:30:02;;;;;;;55.53;33.42;;;154.10;2252.80;;;;;;5063771;28;20035;-57
2023/12/05 08:32:28;;;;;;;288.63;174.40;;;179.30;2252.80;;;;;;5069724;28;20041;-69
2023/12/05 08:34:54;;;;;;;82.28;45.45;;;179.30;2252.80;;;;;;5067368;28;20450;-55
2023/12/05 08:37:20;;;;;;;53.17;33.65;;;179.80;2252.80;;;;;;5068382;28;20139;-56
2023/12/05 08:39:46;;;;;;;55.33;36.13;;;205.20;2252.80;;;;;;5069494;28;20549;-57
2023/12/05 08:42:11;;;;;;;50.95;35.47;;;230.70;2252.80;;;;;;5070128;28;20120;-57
2023/12/05 08:44:37;;;;;;;59.08;38.42;;;256.00;2252.80;;;;;;5069669;28;20036;-60
2023/12/05 08:47:03;;;;;;;109.03;80.72;;;256.80;2176.00;;;;;;5071082;28;20158;-59
2023/12/05 08:49:30;;;;;;;116.88;97.28;;;282.20;2099.20;;;;;;5071749;28;20028;-57
2023/12/05 08:51:55;;;;;;;168.63;139.82;;;307.40;2022.40;;;;;;5072968;28;20028;-57
2023/12/05 08:54:21;;;;;;;121.22;97.47;;;308.10;1945.60;;;;;;5076456;28;20805;-58
2023/12/05 08:56:47;;;;;;;143.88;106.43;;;333.20;1894.40;;;;;;5065833;28;20025;-63
2023/12/05 08:59:13;;;;;;;150.65;102.15;;;333.20;1868.80;;;;;;5071450;28;20780;-70
2023/12/05 09:01:39;;;;;;;135.68;95.28;;;307.90;1868.80;;;;;;5069717;28;20032;-56
2023/12/05 09:04:04;;;;;;;157.27;115.05;;;282.50;1920.00;;;;;;5069237;28;20398;-56
2023/12/05 09:06:31;;;;;;;154.80;113.53;;;282.20;1971.20;;;;;;5069300;28;20463;-56
2023/12/05 09:08:57;;;;;;;151.50;110.97;;;281.60;1996.80;;;;;;5069407;28;20155;-56
2023/12/05 09:11:23;;;;;;;157.32;113.32;;;256.30;2022.40;;;;;;5069806;28;20033;-60
2023/12/05 09:13:49;;;;;;;173.65;122.57;;;231.30;2048.00;;;;;;5068851;28;20047;-69
2023/12/05 09:16:15;;;;;;;185.07;131.93;;;231.30;2099.20;;;;;;5069385;28;20056;-56
2023/12/05 09:18:40;;;;;;;188.88;140.85;;;231.30;2099.20;;;;;;5069037;28;20020;-55
2023/12/05 09:21:08;;;;;;;194.43;137.65;;;231.00;2099.20;;;;;;5069235;28;20024;-66
2023/12/05 09:23:33;;;;;;;192.05;134.65;;;230.80;2150.40;;;;;;5069610;28;20033;-56
2023/12/05 09:25:59;;;;;;;222.90;152.60;;;230.90;2150.40;;;;;;5065075;28;20056;-59
2023/12/05 09:28:25;;;;;;;344.30;216.45;;;230.40;2201.60;;;;;;5062521;28;20025;-60
2023/12/05 09:30:50;;;;;;;217.35;150.02;;;205.60;2227.20;;;;;;5064175;28;20099;-56
2023/12/05 09:33:16;;;;;;;203.55;149.07;;;205.70;2227.20;;;;;;5070100;28;20021;-56
2023/12/05 09:35:43;;;;;;;233.80;165.15;;;230.40;2201.60;;;;;;5069661;28;20466;-56
2023/12/05 09:38:09;;;;;;;223.50;157.57;;;205.50;2227.20;;;;;;5069423;28;20028;-58
2023/12/05 09:40:35;;;;;;;215.30;156.60;;;205.50;2252.80;;;;;;5070029;28;20119;-59
2023/12/05 09:43:04;;;;;;;232.85;161.27;;;180.10;2252.80;;;;;;5069156;28;20037;-56
2023/12/05 09:45:37;;;;;;;254.60;180.50;;;179.90;2252.80;;;;;;5068672;28;20392;-56
2023/12/05 09:48:08;;;;;;;255.70;181.93;;;180.00;2252.80;;;;;;5069754;28;20381;-58
2023/12/05 09:50:35;;;;;;;316.95;224.65;;;204.90;2252.80;;;;;;5069497;28;20089;-58
2023/12/05 09:53:04;;;;;;;216.43;154.27;;;179.60;2252.80;;;;;;5068611;28;20058;-73
2023/12/05 09:55:30;;;;;;;232.82;161.43;;;179.40;2252.80;;;;;;5069171;28;20020;-66
2023/12/05 09:57:58;;;;;;;217.45;146.20;;;179.30;2252.80;;;;;;5067333;28;20044;-67
2023/12/05 10:00:25;;;;;;;191.30;131.93;;;179.40;2252.80;;;;;;5064198;28;20032;-57
2023/12/05 10:02:52;;;;;;;214.55;135.48;;;179.30;2252.80;;;;;;5067920;28;20028;-57
2023/12/05 10:05:20;;;;;;;209.90;133.68;;;154.50;2252.80;;;;;;5068267;28;20025;-58
2023/12/05 10:07:49;;;;;;;213.98;137.18;;;179.40;2252.80;;;;;;5068417;28;20048;-57
2023/12/05 10:10:19;;;;;;;182.82;123.47;;;179.40;2252.80;;;;;;5068235;28;20036;-56
2023/12/05 10:12:47;;;;;;;166.55;108.60;;;179.60;2252.80;;;;;;5068082;28;20461;-57
2023/12/05 10:15:16;;;;;;;201.68;124.65;;;179.90;2252.80;;;;;;5069503;28;20069;-58
2023/12/05 10:17:42;;;;;;;162.60;108.35;;;179.90;2252.80;;;;;;5069359;28;20039;-57
2023/12/05 10:20:08;;;;;;;161.43;108.50;;;179.80;2252.80;;;;;;5068450;28;20379;-57
2023/12/05 10:22:34;;;;;;;169.65;107.05;;;180.00;2252.80;;;;;;5068389;28;20437;-59
2023/12/05 10:25:00;;;;;;;154.52;103.07;;;204.80;2252.80;;;;;;5068503;28;20037;-72
2023/12/05 10:27:26;;;;;;;182.77;118.75;;;179.80;2252.80;;;;;;5068629;28;20016;-65
2023/12/05 10:29:53;;;;;;;180.00;113.00;;;179.70;2252.80;;;;;;5068954;28;20028;-57
2023/12/05 10:32:25;;;;;;;133.25;90.65;;;205.00;2252.80;;;;;;5070716;28;20032;-57
2023/12/05 10:34:53;;;;;;;115.70;83.65;;;180.00;2252.80;;;;;;5064182;28;20032;-70
2023/12/05 10:37:23;;;;;;;117.65;76.95;;;179.90;2252.80;;;;;;5072505;28;20025;-57
2023/12/05 10:39:59;;;;;;;116.70;71.70;;;180.00;2252.80;;;;;;5073095;28;20016;-57
2023/12/05 10:42:26;;;;;;;118.82;84.60;;;204.90;2252.80;;;;;;5018667;28;20087;-58
2023/12/05 10:44:52;;;;;;;125.32;83.18;;;180.10;2252.80;;;;;;5071867;28;20528;-57
2023/12/05 10:47:18;;;;;;;133.15;83.38;;;179.80;2252.80;;;;;;5072582;28;20032;-58
2023/12/05 10:49:44;;;;;;;124.82;81.22;;;179.90;2252.80;;;;;;5072352;28;20021;-58
2023/12/05 10:52:12;;;;;;;112.13;71.38;;;180.00;2252.80;;;;;;5072158;28;20021;-59
2023/12/05 10:54:42;;;;;;;128.68;82.75;;;179.80;2252.80;;;;;;5059605;28;20037;-56
2023/12/05 10:57:10;;;;;;;132.25;84.30;;;179.80;2252.80;;;;;;5071921;28;20107;-58
2023/12/05 10:59:42;;;;;;;129.70;88.70;;;179.80;2252.80;;;;;;5071833;28;20505;-60
2023/12/05 11:02:15;;;;;;;159.18;108.72;;;179.90;2252.80;;;;;;5070177;28;20047;-57
2023/12/05 11:04:42;;;;;;;155.43;107.13;;;205.10;2252.80;;;;;;5046551;28;20071;-59
2023/12/05 11:07:08;;;;;;;141.05;86.13;;;205.10;2252.80;;;;;;5072250;28;20069;-57
2023/12/05 11:09:35;;;;;;;115.07;75.22;;;204.90;2252.80;;;;;;5072634;28;20734;-62
2023/12/05 11:12:08;;;;;;;122.03;78.18;;;204.80;2252.80;;;;;;5071853;28;20410;-66
2023/12/05 11:14:47;;;;;;;125.93;74.47;;;180.10;2252.80;;;;;;5071995;28;20029;-59
2023/12/05 11:17:22;;;;;;;125.57;78.60;;;205.00;2252.80;;;;;;5072220;28;20482;-58
2023/12/05 11:20:25;;;;;;;140.77;88.10;;;204.90;2252.80;;;;;;5071724;28;20033;-68
2023/12/05 11:22:51;;;;;;;122.60;78.90;;;205.00;2252.80;;;;;;4951796;29;20078;-73
2023/12/05 11:25:23;;;;;;;123.95;75.43;;;205.10;2252.80;;;;;;4951017;29;20074;-64
2023/12/05 11:28:12;;;;;;;115.85;67.35;;;205.30;2252.80;;;;;;4951590;29;20043;-72
2023/12/05 11:30:53;;;;;;;117.68;68.78;;;205.10;2252.80;;;;;;4951635;29;20039;-56
2023/12/05 11:33:19;;;;;;;135.32;81.75;;;205.30;2252.80;;;;;;4951385;29;20039;-57
2023/12/05 11:36:01;;;;;;;154.95;97.35;;;205.50;2252.80;;;;;;4951288;29;20035;-57
2023/12/05 11:38:29;;;;;;;134.55;79.00;;;230.50;2252.80;;;;;;4952109;29;20023;-73
2023/12/05 11:41:30;;;;;;;156.60;98.38;;;230.50;2252.80;;;;;;4951653;29;20556;-56
2023/12/05 11:44:34;;;;;;;111.32;72.82;;;230.80;2252.80;;;;;;4867446;29;20064;-67
2023/12/05 11:47:03;;;;;;;134.55;83.15;;;230.90;2252.80;;;;;;4875385;29;20515;-58
2023/12/05 11:49:49;;;;;;;157.57;89.35;;;231.10;2252.80;;;;;;4876049;29;20040;-57
2023/12/05 11:52:15;;;;;;;165.93;98.68;;;231.20;2252.80;;;;;;4874440;29;20043;-57
2023/12/05 11:54:42;;;;;;;183.73;103.38;;;231.00;2252.80;;;;;;4875183;29;20117;-57
2023/12/05 11:57:19;;;;;;;89.78;55.55;;;231.00;2252.80;;;;;;4875522;29;20116;-56
2023/12/05 11:59:46;;;;;;;104.28;60.10;;;231.10;2252.80;;;;;;4954307;28;21052;-66
2023/12/05 12:02:25;;;;;;;183.57;106.20;;;231.00;2252.80;;;;;;4990214;28;20031;-72